Bronte, Texas
Current Conditions -  °F | °C
As of 10:51 AM on Thursday 18 Dec 2014 (Local Time) from KSJT Reporting Station
Clear Clear  
Wind Chill: 55°   Ceiling: Unl
Heat Index: 55°   Visibility: 10mi
Dew Point: 43°   Wind: 5mph
Humidity: 64%   Direction: 250°WSW
Pressure: 30.16"   Gusts: NA
Location:  31.89°N, 100.29°W
Report Text: KSJT 181651Z 25004KT 10SM CLR 13/06 A3016 RMK AO2 SLP211 T01280061
Loading
Personal Weather Stations






























Interactive Weather Map New forecast layout! Learn more

10-Day Weather Forecast

Advertisements
Track Severe Weather on mobile